sensor_id;sensor_type;location;lat;lon;timestamp;P1;durP1;ratioP1;P2;durP2;ratioP2
75044;SDS011;63614;56.026;35.960;2023-03-24T00:00:00;25.73;;;16.60;;
75044;SDS011;63614;56.026;35.960;2023-03-24T00:02:27;24.23;;;16.52;;
75044;SDS011;63614;56.026;35.960;2023-03-24T00:04:53;24.90;;;17.00;;
75044;SDS011;63614;56.026;35.960;2023-03-24T00:07:23;24.67;;;15.68;;
75044;SDS011;63614;56.026;35.960;2023-03-24T00:09:49;25.17;;;17.10;;
75044;SDS011;63614;56.026;35.960;2023-03-24T00:12:15;25.80;;;17.35;;
75044;SDS011;63614;56.026;35.960;2023-03-24T00:14:43;26.90;;;16.10;;
75044;SDS011;63614;56.026;35.960;2023-03-24T00:17:11;23.33;;;15.13;;
75044;SDS011;63614;56.026;35.960;2023-03-24T00:19:38;28.77;;;16.50;;
75044;SDS011;63614;56.026;35.960;2023-03-24T00:22:06;24.85;;;16.15;;
75044;SDS011;63614;56.026;35.960;2023-03-24T00:24:32;24.15;;;15.40;;
75044;SDS011;63614;56.026;35.960;2023-03-24T00:26:59;25.05;;;15.68;;
75044;SDS011;63614;56.026;35.960;2023-03-24T00:29:27;23.67;;;16.13;;
75044;SDS011;63614;56.026;35.960;2023-03-24T00:31:53;26.77;;;15.45;;
75044;SDS011;63614;56.026;35.960;2023-03-24T00:34:19;24.48;;;15.55;;
75044;SDS011;63614;56.026;35.960;2023-03-24T00:36:46;23.90;;;15.73;;
75044;SDS011;63614;56.026;35.960;2023-03-24T00:39:13;26.92;;;17.05;;
75044;SDS011;63614;56.026;35.960;2023-03-24T00:41:42;23.83;;;15.60;;
75044;SDS011;63614;56.026;35.960;2023-03-24T00:44:13;25.35;;;17.17;;
75044;SDS011;63614;56.026;35.960;2023-03-24T00:46:46;27.80;;;16.63;;
75044;SDS011;63614;56.026;35.960;2023-03-24T00:49:24;29.02;;;16.48;;
75044;SDS011;63614;56.026;35.960;2023-03-24T00:52:08;26.02;;;16.70;;
75044;SDS011;63614;56.026;35.960;2023-03-24T00:54:35;25.50;;;16.40;;
75044;SDS011;63614;56.026;35.960;2023-03-24T00:57:02;28.13;;;16.38;;
75044;SDS011;63614;56.026;35.960;2023-03-24T00:59:28;25.48;;;16.77;;
75044;SDS011;63614;56.026;35.960;2023-03-24T01:01:54;27.63;;;16.70;;
75044;SDS011;63614;56.026;35.960;2023-03-24T01:04:21;25.80;;;16.13;;
75044;SDS011;63614;56.026;35.960;2023-03-24T01:06:51;22.83;;;15.50;;
75044;SDS011;63614;56.026;35.960;2023-03-24T01:09:18;27.40;;;15.93;;
75044;SDS011;63614;56.026;35.960;2023-03-24T01:11:46;27.48;;;17.15;;
75044;SDS011;63614;56.026;35.960;2023-03-24T01:14:12;27.25;;;16.45;;
75044;SDS011;63614;56.026;35.960;2023-03-24T01:16:39;26.07;;;16.37;;
75044;SDS011;63614;56.026;35.960;2023-03-24T01:19:06;27.05;;;17.05;;
75044;SDS011;63614;56.026;35.960;2023-03-24T01:21:35;27.63;;;16.83;;
75044;SDS011;63614;56.026;35.960;2023-03-24T01:24:02;25.45;;;17.38;;
75044;SDS011;63614;56.026;35.960;2023-03-24T01:26:29;28.45;;;17.17;;
75044;SDS011;63614;56.026;35.960;2023-03-24T01:28:55;28.08;;;16.15;;
75044;SDS011;63614;56.026;35.960;2023-03-24T01:31:21;25.10;;;15.38;;
75044;SDS011;63614;56.026;35.960;2023-03-24T01:33:47;24.98;;;16.33;;
75044;SDS011;63614;56.026;35.960;2023-03-24T01:36:13;24.08;;;17.10;;
75044;SDS011;63614;56.026;35.960;2023-03-24T01:38:39;25.83;;;16.73;;
75044;SDS011;63614;56.026;35.960;2023-03-24T01:41:05;28.15;;;17.20;;
75044;SDS011;63614;56.026;35.960;2023-03-24T01:43:33;33.05;;;19.13;;
75044;SDS011;63614;56.026;35.960;2023-03-24T01:46:14;27.95;;;16.55;;
75044;SDS011;63614;56.026;35.960;2023-03-24T01:51:25;26.90;;;18.88;;
75044;SDS011;63614;56.026;35.960;2023-03-24T01:54:04;27.20;;;18.17;;
75044;SDS011;63614;56.026;35.960;2023-03-24T01:56:37;29.00;;;18.27;;
75044;SDS011;63614;56.026;35.960;2023-03-24T01:59:11;27.90;;;18.13;;
75044;SDS011;63614;56.026;35.960;2023-03-24T02:01:53;32.38;;;20.17;;
75044;SDS011;63614;56.026;35.960;2023-03-24T02:04:36;28.35;;;19.40;;
75044;SDS011;63614;56.026;35.960;2023-03-24T02:07:11;28.38;;;18.42;;
75044;SDS011;63614;56.026;35.960;2023-03-24T02:09:43;28.15;;;18.00;;
75044;SDS011;63614;56.026;35.960;2023-03-24T02:12:09;26.73;;;18.27;;
75044;SDS011;63614;56.026;35.960;2023-03-24T02:14:35;26.48;;;17.77;;
75044;SDS011;63614;56.026;35.960;2023-03-24T02:31:33;26.13;;;17.33;;
75044;SDS011;63614;56.026;35.960;2023-03-24T02:34:21;27.00;;;17.40;;
75044;SDS011;63614;56.026;35.960;2023-03-24T02:41:59;34.38;;;17.85;;
75044;SDS011;63614;56.026;35.960;2023-03-24T02:44:41;32.28;;;17.20;;
75044;SDS011;63614;56.026;35.960;2023-03-24T02:49:42;32.38;;;18.13;;
75044;SDS011;63614;56.026;35.960;2023-03-24T02:52:22;29.65;;;17.58;;
75044;SDS011;63614;56.026;35.960;2023-03-24T02:55:14;28.92;;;17.65;;
75044;SDS011;63614;56.026;35.960;2023-03-24T02:57:53;23.95;;;17.20;;
75044;SDS011;63614;56.026;35.960;2023-03-24T03:00:53;27.33;;;19.30;;
75044;SDS011;63614;56.026;35.960;2023-03-24T03:04:15;26.27;;;16.98;;
75044;SDS011;63614;56.026;35.960;2023-03-24T03:06:48;24.45;;;17.98;;
75044;SDS011;63614;56.026;35.960;2023-03-24T03:09:20;26.95;;;18.35;;
75044;SDS011;63614;56.026;35.960;2023-03-24T03:11:48;26.95;;;18.63;;
75044;SDS011;63614;56.026;35.960;2023-03-24T03:14:19;28.30;;;19.80;;
75044;SDS011;63614;56.026;35.960;2023-03-24T03:17:08;32.00;;;20.38;;
75044;SDS011;63614;56.026;35.960;2023-03-24T03:20:09;27.52;;;18.98;;
75044;SDS011;63614;56.026;35.960;2023-03-24T03:25:17;30.08;;;18.48;;
75044;SDS011;63614;56.026;35.960;2023-03-24T03:27:48;31.35;;;19.05;;
75044;SDS011;63614;56.026;35.960;2023-03-24T03:30:19;27.00;;;18.70;;
75044;SDS011;63614;56.026;35.960;2023-03-24T03:32:55;30.90;;;19.65;;
75044;SDS011;63614;56.026;35.960;2023-03-24T03:35:37;27.02;;;19.23;;
75044;SDS011;63614;56.026;35.960;2023-03-24T03:43:43;31.70;;;19.67;;
75044;SDS011;63614;56.026;35.960;2023-03-24T03:48:37;26.80;;;19.02;;
75044;SDS011;63614;56.026;35.960;2023-03-24T03:51:04;34.13;;;19.80;;
75044;SDS011;63614;56.026;35.960;2023-03-24T03:53:43;31.05;;;19.10;;
75044;SDS011;63614;56.026;35.960;2023-03-24T03:56:13;30.00;;;18.50;;
75044;SDS011;63614;56.026;35.960;2023-03-24T03:58:52;28.92;;;19.48;;
75044;SDS011;63614;56.026;35.960;2023-03-24T04:01:20;30.92;;;19.83;;
75044;SDS011;63614;56.026;35.960;2023-03-24T04:07:24;31.83;;;19.73;;
75044;SDS011;63614;56.026;35.960;2023-03-24T04:25:19;31.38;;;19.92;;
75044;SDS011;63614;56.026;35.960;2023-03-24T04:27:52;30.52;;;18.95;;
75044;SDS011;63614;56.026;35.960;2023-03-24T04:30:24;32.88;;;20.27;;
75044;SDS011;63614;56.026;35.960;2023-03-24T04:32:56;31.08;;;20.45;;
75044;SDS011;63614;56.026;35.960;2023-03-24T04:35:45;37.25;;;22.17;;
75044;SDS011;63614;56.026;35.960;2023-03-24T04:38:26;29.95;;;20.95;;
75044;SDS011;63614;56.026;35.960;2023-03-24T04:41:11;32.00;;;21.65;;
75044;SDS011;63614;56.026;35.960;2023-03-24T04:43:44;38.50;;;21.02;;
75044;SDS011;63614;56.026;35.960;2023-03-24T04:46:12;34.90;;;21.00;;
75044;SDS011;63614;56.026;35.960;2023-03-24T04:49:20;31.48;;;21.23;;
75044;SDS011;63614;56.026;35.960;2023-03-24T04:51:49;33.03;;;21.95;;
75044;SDS011;63614;56.026;35.960;2023-03-24T04:54:19;36.10;;;21.80;;
75044;SDS011;63614;56.026;35.960;2023-03-24T04:56:50;34.05;;;20.88;;
75044;SDS011;63614;56.026;35.960;2023-03-24T04:59:40;32.33;;;21.08;;
75044;SDS011;63614;56.026;35.960;2023-03-24T05:02:08;33.97;;;21.35;;
75044;SDS011;63614;56.026;35.960;2023-03-24T05:04:37;31.52;;;21.67;;
75044;SDS011;63614;56.026;35.960;2023-03-24T05:07:30;31.92;;;20.25;;
75044;SDS011;63614;56.026;35.960;2023-03-24T05:10:00;31.55;;;20.33;;
75044;SDS011;63614;56.026;35.960;2023-03-24T05:12:26;31.48;;;20.58;;
75044;SDS011;63614;56.026;35.960;2023-03-24T05:15:19;27.80;;;18.73;;
75044;SDS011;63614;56.026;35.960;2023-03-24T05:17:50;31.55;;;20.35;;
75044;SDS011;63614;56.026;35.960;2023-03-24T05:20:17;36.13;;;21.15;;
75044;SDS011;63614;56.026;35.960;2023-03-24T05:22:48;30.08;;;18.60;;
75044;SDS011;63614;56.026;35.960;2023-03-24T05:25:15;32.93;;;20.13;;
75044;SDS011;63614;56.026;35.960;2023-03-24T05:27:41;31.60;;;20.35;;
75044;SDS011;63614;56.026;35.960;2023-03-24T05:30:18;31.73;;;19.63;;
75044;SDS011;63614;56.026;35.960;2023-03-24T05:35:11;27.17;;;18.38;;
75044;SDS011;63614;56.026;35.960;2023-03-24T05:37:38;32.25;;;18.00;;
75044;SDS011;63614;56.026;35.960;2023-03-24T05:40:03;27.90;;;17.88;;
75044;SDS011;63614;56.026;35.960;2023-03-24T05:42:51;25.83;;;16.23;;
75044;SDS011;63614;56.026;35.960;2023-03-24T05:45:18;25.80;;;17.45;;
75044;SDS011;63614;56.026;35.960;2023-03-24T05:47:45;25.15;;;16.83;;
75044;SDS011;63614;56.026;35.960;2023-03-24T05:50:14;24.20;;;15.73;;
75044;SDS011;63614;56.026;35.960;2023-03-24T05:52:43;26.70;;;17.52;;
75044;SDS011;63614;56.026;35.960;2023-03-24T05:55:32;25.33;;;16.95;;
75044;SDS011;63614;56.026;35.960;2023-03-24T05:58:10;32.40;;;16.67;;
75044;SDS011;63614;56.026;35.960;2023-03-24T06:00:43;24.50;;;16.20;;
75044;SDS011;63614;56.026;35.960;2023-03-24T06:03:16;22.08;;;15.13;;
75044;SDS011;63614;56.026;35.960;2023-03-24T06:05:47;22.55;;;15.27;;
75044;SDS011;63614;56.026;35.960;2023-03-24T06:08:15;22.40;;;15.52;;
75044;SDS011;63614;56.026;35.960;2023-03-24T06:10:43;26.15;;;15.82;;
75044;SDS011;63614;56.026;35.960;2023-03-24T06:13:08;25.52;;;16.05;;
75044;SDS011;63614;56.026;35.960;2023-03-24T06:18:26;26.33;;;14.75;;
75044;SDS011;63614;56.026;35.960;2023-03-24T06:20:54;26.70;;;13.73;;
75044;SDS011;63614;56.026;35.960;2023-03-24T06:23:27;27.50;;;13.13;;
75044;SDS011;63614;56.026;35.960;2023-03-24T06:26:06;25.45;;;11.57;;
75044;SDS011;63614;56.026;35.960;2023-03-24T06:28:33;15.85;;;8.65;;
75044;SDS011;63614;56.026;35.960;2023-03-24T06:31:03;24.63;;;10.30;;
75044;SDS011;63614;56.026;35.960;2023-03-24T06:33:42;24.75;;;11.00;;
75044;SDS011;63614;56.026;35.960;2023-03-24T06:36:09;17.17;;;9.85;;
75044;SDS011;63614;56.026;35.960;2023-03-24T06:38:36;15.18;;;8.60;;
75044;SDS011;63614;56.026;35.960;2023-03-24T06:43:30;11.18;;;7.20;;
75044;SDS011;63614;56.026;35.960;2023-03-24T06:45:57;13.35;;;7.80;;
75044;SDS011;63614;56.026;35.960;2023-03-24T06:48:24;14.95;;;8.68;;
75044;SDS011;63614;56.026;35.960;2023-03-24T06:50:57;14.70;;;7.97;;
75044;SDS011;63614;56.026;35.960;2023-03-24T06:53:23;12.70;;;7.75;;
75044;SDS011;63614;56.026;35.960;2023-03-24T06:55:49;14.38;;;7.45;;
75044;SDS011;63614;56.026;35.960;2023-03-24T06:58:17;11.85;;;7.78;;
75044;SDS011;63614;56.026;35.960;2023-03-24T07:01:01;12.60;;;6.95;;
75044;SDS011;63614;56.026;35.960;2023-03-24T07:03:33;11.73;;;7.40;;
75044;SDS011;63614;56.026;35.960;2023-03-24T07:06:19;12.27;;;7.53;;
75044;SDS011;63614;56.026;35.960;2023-03-24T07:08:51;25.67;;;7.63;;
75044;SDS011;63614;56.026;35.960;2023-03-24T07:13:51;22.33;;;7.90;;
75044;SDS011;63614;56.026;35.960;2023-03-24T07:16:17;31.38;;;9.93;;
75044;SDS011;63614;56.026;35.960;2023-03-24T07:18:46;21.77;;;8.20;;
75044;SDS011;63614;56.026;35.960;2023-03-24T07:21:12;16.77;;;6.07;;
75044;SDS011;63614;56.026;35.960;2023-03-24T07:23:40;13.50;;;6.13;;
75044;SDS011;63614;56.026;35.960;2023-03-24T07:26:12;15.07;;;6.53;;
75044;SDS011;63614;56.026;35.960;2023-03-24T07:28:47;26.23;;;6.72;;
75044;SDS011;63614;56.026;35.960;2023-03-24T07:31:31;20.70;;;6.32;;
75044;SDS011;63614;56.026;35.960;2023-03-24T07:34:03;23.00;;;6.80;;
75044;SDS011;63614;56.026;35.960;2023-03-24T07:36:33;17.38;;;5.40;;
75044;SDS011;63614;56.026;35.960;2023-03-24T07:38:59;14.90;;;5.15;;
75044;SDS011;63614;56.026;35.960;2023-03-24T07:41:31;13.10;;;5.72;;
75044;SDS011;63614;56.026;35.960;2023-03-24T07:44:01;23.67;;;7.82;;
75044;SDS011;63614;56.026;35.960;2023-03-24T07:46:38;28.17;;;8.02;;
75044;SDS011;63614;56.026;35.960;2023-03-24T07:49:05;14.35;;;5.30;;
75044;SDS011;63614;56.026;35.960;2023-03-24T07:51:31;19.05;;;5.18;;
75044;SDS011;63614;56.026;35.960;2023-03-24T07:54:04;23.85;;;5.38;;
75044;SDS011;63614;56.026;35.960;2023-03-24T07:56:44;6.93;;;4.20;;
75044;SDS011;63614;56.026;35.960;2023-03-24T07:59:10;8.95;;;3.90;;
75044;SDS011;63614;56.026;35.960;2023-03-24T08:01:59;6.47;;;3.83;;
75044;SDS011;63614;56.026;35.960;2023-03-24T08:04:49;5.35;;;3.50;;
75044;SDS011;63614;56.026;35.960;2023-03-24T08:07:36;11.27;;;6.38;;
75044;SDS011;63614;56.026;35.960;2023-03-24T08:10:02;7.45;;;4.40;;
75044;SDS011;63614;56.026;35.960;2023-03-24T08:12:28;5.38;;;3.55;;
75044;SDS011;63614;56.026;35.960;2023-03-24T08:14:54;6.05;;;3.78;;
75044;SDS011;63614;56.026;35.960;2023-03-24T08:17:20;7.85;;;4.72;;
75044;SDS011;63614;56.026;35.960;2023-03-24T08:19:46;40.72;;;20.58;;
75044;SDS011;63614;56.026;35.960;2023-03-24T08:22:12;11.93;;;5.05;;
75044;SDS011;63614;56.026;35.960;2023-03-24T08:24:38;23.13;;;10.70;;
75044;SDS011;63614;56.026;35.960;2023-03-24T08:27:04;23.10;;;4.82;;
75044;SDS011;63614;56.026;35.960;2023-03-24T08:29:32;19.45;;;5.20;;
75044;SDS011;63614;56.026;35.960;2023-03-24T08:31:59;14.13;;;5.00;;
75044;SDS011;63614;56.026;35.960;2023-03-24T08:34:25;12.70;;;4.63;;
75044;SDS011;63614;56.026;35.960;2023-03-24T08:36:51;23.48;;;5.40;;
75044;SDS011;63614;56.026;35.960;2023-03-24T08:39:17;17.48;;;5.25;;
75044;SDS011;63614;56.026;35.960;2023-03-24T08:41:44;24.93;;;4.57;;
75044;SDS011;63614;56.026;35.960;2023-03-24T08:44:11;14.17;;;4.77;;
75044;SDS011;63614;56.026;35.960;2023-03-24T08:46:38;7.20;;;3.35;;
75044;SDS011;63614;56.026;35.960;2023-03-24T08:49:04;9.52;;;3.10;;
75044;SDS011;63614;56.026;35.960;2023-03-24T08:51:30;6.05;;;3.17;;
75044;SDS011;63614;56.026;35.960;2023-03-24T08:53:56;7.60;;;2.92;;
75044;SDS011;63614;56.026;35.960;2023-03-24T08:56:22;5.18;;;3.10;;
75044;SDS011;63614;56.026;35.960;2023-03-24T08:58:50;5.13;;;3.40;;
75044;SDS011;63614;56.026;35.960;2023-03-24T09:01:18;6.78;;;3.33;;
75044;SDS011;63614;56.026;35.960;2023-03-24T09:03:45;4.63;;;2.90;;
75044;SDS011;63614;56.026;35.960;2023-03-24T09:06:11;4.57;;;3.20;;
75044;SDS011;63614;56.026;35.960;2023-03-24T09:08:37;7.10;;;3.10;;
75044;SDS011;63614;56.026;35.960;2023-03-24T09:11:03;6.35;;;3.00;;
75044;SDS011;63614;56.026;35.960;2023-03-24T09:13:30;4.10;;;2.92;;
75044;SDS011;63614;56.026;35.960;2023-03-24T09:15:57;6.75;;;3.25;;
75044;SDS011;63614;56.026;35.960;2023-03-24T09:18:25;10.88;;;3.92;;
75044;SDS011;63614;56.026;35.960;2023-03-24T09:20:50;3.97;;;3.05;;
75044;SDS011;63614;56.026;35.960;2023-03-24T09:23:17;4.57;;;3.00;;
75044;SDS011;63614;56.026;35.960;2023-03-24T09:25:43;7.43;;;3.23;;
75044;SDS011;63614;56.026;35.960;2023-03-24T09:28:09;5.13;;;3.30;;
75044;SDS011;63614;56.026;35.960;2023-03-24T09:30:35;9.15;;;3.65;;
75044;SDS011;63614;56.026;35.960;2023-03-24T09:33:01;7.78;;;3.28;;
75044;SDS011;63614;56.026;35.960;2023-03-24T09:35:28;9.10;;;3.53;;
75044;SDS011;63614;56.026;35.960;2023-03-24T09:37:54;8.68;;;3.25;;
75044;SDS011;63614;56.026;35.960;2023-03-24T09:40:30;16.15;;;6.88;;
75044;SDS011;63614;56.026;35.960;2023-03-24T09:43:04;11.43;;;3.80;;
75044;SDS011;63614;56.026;35.960;2023-03-24T09:45:47;17.48;;;4.03;;
75044;SDS011;63614;56.026;35.960;2023-03-24T09:48:26;5.78;;;3.13;;
75044;SDS011;63614;56.026;35.960;2023-03-24T09:56:40;12.73;;;3.90;;
75044;SDS011;63614;56.026;35.960;2023-03-24T09:59:14;10.48;;;3.83;;
75044;SDS011;63614;56.026;35.960;2023-03-24T10:01:43;7.38;;;3.42;;
75044;SDS011;63614;56.026;35.960;2023-03-24T10:04:17;8.25;;;3.28;;
75044;SDS011;63614;56.026;35.960;2023-03-24T10:06:45;12.68;;;3.60;;
75044;SDS011;63614;56.026;35.960;2023-03-24T10:09:22;5.57;;;3.63;;
75044;SDS011;63614;56.026;35.960;2023-03-24T10:17:04;9.80;;;3.30;;
75044;SDS011;63614;56.026;35.960;2023-03-24T10:19:41;10.18;;;3.25;;
75044;SDS011;63614;56.026;35.960;2023-03-24T10:24:44;5.72;;;3.05;;
75044;SDS011;63614;56.026;35.960;2023-03-24T10:27:38;8.50;;;2.80;;
75044;SDS011;63614;56.026;35.960;2023-03-24T10:33:12;4.47;;;2.42;;
75044;SDS011;63614;56.026;35.960;2023-03-24T10:35:45;3.80;;;2.42;;
75044;SDS011;63614;56.026;35.960;2023-03-24T10:38:21;5.32;;;2.72;;
75044;SDS011;63614;56.026;35.960;2023-03-24T10:40:48;8.73;;;3.20;;
75044;SDS011;63614;56.026;35.960;2023-03-24T10:43:15;5.18;;;2.60;;
75044;SDS011;63614;56.026;35.960;2023-03-24T10:45:49;4.55;;;2.35;;
75044;SDS011;63614;56.026;35.960;2023-03-24T10:51:09;9.63;;;2.60;;
75044;SDS011;63614;56.026;35.960;2023-03-24T10:53:42;4.43;;;2.38;;
75044;SDS011;63614;56.026;35.960;2023-03-24T10:56:21;8.77;;;2.42;;
75044;SDS011;63614;56.026;35.960;2023-03-24T10:59:05;8.27;;;2.50;;
75044;SDS011;63614;56.026;35.960;2023-03-24T11:04:36;8.15;;;2.60;;
75044;SDS011;63614;56.026;35.960;2023-03-24T11:07:13;7.47;;;2.58;;
75044;SDS011;63614;56.026;35.960;2023-03-24T11:09:42;14.63;;;3.90;;
75044;SDS011;63614;56.026;35.960;2023-03-24T11:17:43;11.27;;;3.20;;
75044;SDS011;63614;56.026;35.960;2023-03-24T11:20:37;16.08;;;3.63;;
75044;SDS011;63614;56.026;35.960;2023-03-24T11:23:26;7.82;;;2.70;;
75044;SDS011;63614;56.026;35.960;2023-03-24T11:28:41;12.38;;;3.17;;
75044;SDS011;63614;56.026;35.960;2023-03-24T11:31:11;10.55;;;2.72;;
75044;SDS011;63614;56.026;35.960;2023-03-24T11:33:50;10.88;;;3.38;;
75044;SDS011;63614;56.026;35.960;2023-03-24T11:42:27;4.47;;;2.53;;
75044;SDS011;63614;56.026;35.960;2023-03-24T11:44:32;7.57;;;2.75;;
75044;SDS011;63614;56.026;35.960;2023-03-24T11:52:18;8.98;;;2.17;;
75044;SDS011;63614;56.026;35.960;2023-03-24T11:54:47;7.20;;;3.70;;
75044;SDS011;63614;56.026;35.960;2023-03-24T11:57:14;15.73;;;3.17;;
75044;SDS011;63614;56.026;35.960;2023-03-24T12:08:21;9.27;;;2.60;;
75044;SDS011;63614;56.026;35.960;2023-03-24T12:13:48;15.00;;;2.67;;
75044;SDS011;63614;56.026;35.960;2023-03-24T12:21:48;7.97;;;2.53;;
75044;SDS011;63614;56.026;35.960;2023-03-24T12:27:04;8.18;;;2.40;;
75044;SDS011;63614;56.026;35.960;2023-03-24T12:37:51;3.40;;;2.00;;
75044;SDS011;63614;56.026;35.960;2023-03-24T12:43:10;5.72;;;2.00;;
75044;SDS011;63614;56.026;35.960;2023-03-24T12:46:00;4.03;;;2.20;;
75044;SDS011;63614;56.026;35.960;2023-03-24T12:51:33;4.20;;;1.90;;
75044;SDS011;63614;56.026;35.960;2023-03-24T12:54:35;5.80;;;1.92;;
75044;SDS011;63614;56.026;35.960;2023-03-24T12:57:15;7.35;;;2.20;;
75044;SDS011;63614;56.026;35.960;2023-03-24T13:00:02;4.18;;;2.05;;
75044;SDS011;63614;56.026;35.960;2023-03-24T13:02:40;4.90;;;2.20;;
75044;SDS011;63614;56.026;35.960;2023-03-24T13:05:14;11.60;;;2.53;;
75044;SDS011;63614;56.026;35.960;2023-03-24T13:08:04;6.97;;;2.28;;
75044;SDS011;63614;56.026;35.960;2023-03-24T13:13:22;7.07;;;2.08;;
75044;SDS011;63614;56.026;35.960;2023-03-24T13:16:02;6.70;;;2.20;;
75044;SDS011;63614;56.026;35.960;2023-03-24T13:18:42;8.00;;;3.08;;
75044;SDS011;63614;56.026;35.960;2023-03-24T13:21:16;6.32;;;2.53;;
75044;SDS011;63614;56.026;35.960;2023-03-24T13:34:58;3.83;;;2.13;;
75044;SDS011;63614;56.026;35.960;2023-03-24T13:37:33;7.25;;;2.00;;
75044;SDS011;63614;56.026;35.960;2023-03-24T13:40:24;6.82;;;2.17;;
75044;SDS011;63614;56.026;35.960;2023-03-24T13:42:59;7.53;;;3.25;;
75044;SDS011;63614;56.026;35.960;2023-03-24T13:50:53;5.95;;;2.60;;
75044;SDS011;63614;56.026;35.960;2023-03-24T13:53:33;5.80;;;2.60;;
75044;SDS011;63614;56.026;35.960;2023-03-24T13:56:03;7.72;;;2.63;;
75044;SDS011;63614;56.026;35.960;2023-03-24T13:58:45;5.32;;;2.47;;
75044;SDS011;63614;56.026;35.960;2023-03-24T14:01:30;5.13;;;2.20;;
75044;SDS011;63614;56.026;35.960;2023-03-24T14:06:47;5.43;;;2.00;;
75044;SDS011;63614;56.026;35.960;2023-03-24T14:14:28;3.55;;;2.20;;
75044;SDS011;63614;56.026;35.960;2023-03-24T14:22:09;4.47;;;1.85;;
75044;SDS011;63614;56.026;35.960;2023-03-24T14:25:00;7.75;;;1.77;;
75044;SDS011;63614;56.026;35.960;2023-03-24T14:27:35;5.40;;;2.08;;
75044;SDS011;63614;56.026;35.960;2023-03-24T14:30:23;8.95;;;1.80;;
75044;SDS011;63614;56.026;35.960;2023-03-24T14:32:55;6.57;;;2.20;;
75044;SDS011;63614;56.026;35.960;2023-03-24T14:38:40;12.18;;;2.53;;
75044;SDS011;63614;56.026;35.960;2023-03-24T14:40:49;8.98;;;2.13;;
75044;SDS011;63614;56.026;35.960;2023-03-24T14:43:25;4.72;;;1.85;;
75044;SDS011;63614;56.026;35.960;2023-03-24T14:48:32;3.72;;;1.70;;
75044;SDS011;63614;56.026;35.960;2023-03-24T14:51:05;8.10;;;1.73;;
75044;SDS011;63614;56.026;35.960;2023-03-24T14:53:45;6.38;;;1.80;;
75044;SDS011;63614;56.026;35.960;2023-03-24T14:56:12;6.43;;;1.60;;
75044;SDS011;63614;56.026;35.960;2023-03-24T14:58:42;5.25;;;1.92;;
75044;SDS011;63614;56.026;35.960;2023-03-24T15:01:11;9.05;;;1.90;;
75044;SDS011;63614;56.026;35.960;2023-03-24T15:06:47;15.60;;;1.92;;
75044;SDS011;63614;56.026;35.960;2023-03-24T15:09:16;3.63;;;1.65;;
75044;SDS011;63614;56.026;35.960;2023-03-24T15:11:43;4.72;;;1.58;;
75044;SDS011;63614;56.026;35.960;2023-03-24T15:14:30;11.23;;;2.28;;
75044;SDS011;63614;56.026;35.960;2023-03-24T15:17:03;7.50;;;1.90;;
75044;SDS011;63614;56.026;35.960;2023-03-24T15:19:40;5.18;;;1.90;;
75044;SDS011;63614;56.026;35.960;2023-03-24T15:22:09;6.78;;;1.70;;
75044;SDS011;63614;56.026;35.960;2023-03-24T15:24:39;9.13;;;1.60;;
75044;SDS011;63614;56.026;35.960;2023-03-24T15:32:02;6.15;;;1.63;;
75044;SDS011;63614;56.026;35.960;2023-03-24T15:34:30;9.65;;;2.03;;
75044;SDS011;63614;56.026;35.960;2023-03-24T15:37:04;4.75;;;1.75;;
75044;SDS011;63614;56.026;35.960;2023-03-24T15:39:46;6.55;;;1.88;;
75044;SDS011;63614;56.026;35.960;2023-03-24T15:42:19;5.70;;;2.20;;
75044;SDS011;63614;56.026;35.960;2023-03-24T15:44:46;7.68;;;1.70;;
75044;SDS011;63614;56.026;35.960;2023-03-24T15:47:23;10.50;;;1.80;;
75044;SDS011;63614;56.026;35.960;2023-03-24T15:49:53;4.07;;;1.73;;
75044;SDS011;63614;56.026;35.960;2023-03-24T15:55:01;5.38;;;2.20;;
75044;SDS011;63614;56.026;35.960;2023-03-24T15:57:35;6.28;;;2.13;;
75044;SDS011;63614;56.026;35.960;2023-03-24T16:00:15;8.27;;;2.28;;
75044;SDS011;63614;56.026;35.960;2023-03-24T16:02:45;15.68;;;3.10;;
75044;SDS011;63614;56.026;35.960;2023-03-24T16:07:56;52.33;;;3.90;;
75044;SDS011;63614;56.026;35.960;2023-03-24T16:10:42;20.77;;;3.35;;
75044;SDS011;63614;56.026;35.960;2023-03-24T16:13:21;21.58;;;3.30;;
75044;SDS011;63614;56.026;35.960;2023-03-24T16:15:52;16.77;;;4.43;;
75044;SDS011;63614;56.026;35.960;2023-03-24T16:18:20;12.60;;;4.32;;
75044;SDS011;63614;56.026;35.960;2023-03-24T16:20:57;18.30;;;4.70;;
75044;SDS011;63614;56.026;35.960;2023-03-24T16:23:27;17.17;;;5.82;;
75044;SDS011;63614;56.026;35.960;2023-03-24T16:25:54;24.38;;;5.13;;
75044;SDS011;63614;56.026;35.960;2023-03-24T16:28:20;10.32;;;3.75;;
75044;SDS011;63614;56.026;35.960;2023-03-24T16:30:49;11.10;;;3.80;;
75044;SDS011;63614;56.026;35.960;2023-03-24T16:33:22;10.20;;;3.40;;
75044;SDS011;63614;56.026;35.960;2023-03-24T16:35:49;13.48;;;3.78;;
75044;SDS011;63614;56.026;35.960;2023-03-24T16:38:15;11.95;;;3.60;;
75044;SDS011;63614;56.026;35.960;2023-03-24T16:40:45;15.05;;;3.25;;
75044;SDS011;63614;56.026;35.960;2023-03-24T16:43:14;8.40;;;3.10;;
75044;SDS011;63614;56.026;35.960;2023-03-24T16:45:40;10.80;;;3.38;;
75044;SDS011;63614;56.026;35.960;2023-03-24T16:48:09;9.00;;;2.90;;
75044;SDS011;63614;56.026;35.960;2023-03-24T16:53:04;12.25;;;3.15;;
75044;SDS011;63614;56.026;35.960;2023-03-24T16:55:34;19.10;;;3.92;;
75044;SDS011;63614;56.026;35.960;2023-03-24T16:58:01;14.85;;;4.05;;
75044;SDS011;63614;56.026;35.960;2023-03-24T17:00:28;23.02;;;6.30;;
75044;SDS011;63614;56.026;35.960;2023-03-24T17:02:54;33.20;;;8.07;;
75044;SDS011;63614;56.026;35.960;2023-03-24T17:07:54;25.83;;;5.30;;
75044;SDS011;63614;56.026;35.960;2023-03-24T17:10:20;25.48;;;5.57;;
75044;SDS011;63614;56.026;35.960;2023-03-24T17:12:47;14.73;;;5.28;;
75044;SDS011;63614;56.026;35.960;2023-03-24T17:15:33;19.30;;;6.13;;
75044;SDS011;63614;56.026;35.960;2023-03-24T17:17:59;12.82;;;6.13;;
75044;SDS011;63614;56.026;35.960;2023-03-24T17:20:25;13.75;;;6.47;;
75044;SDS011;63614;56.026;35.960;2023-03-24T17:22:54;10.38;;;6.63;;
75044;SDS011;63614;56.026;35.960;2023-03-24T17:25:21;12.70;;;6.00;;
75044;SDS011;63614;56.026;35.960;2023-03-24T17:27:48;10.57;;;5.10;;
75044;SDS011;63614;56.026;35.960;2023-03-24T17:30:18;7.72;;;3.55;;
75044;SDS011;63614;56.026;35.960;2023-03-24T17:32:47;7.65;;;3.55;;
75044;SDS011;63614;56.026;35.960;2023-03-24T17:35:14;11.27;;;3.67;;
75044;SDS011;63614;56.026;35.960;2023-03-24T17:37:42;8.40;;;3.70;;
75044;SDS011;63614;56.026;35.960;2023-03-24T17:40:10;10.13;;;4.50;;
75044;SDS011;63614;56.026;35.960;2023-03-24T17:42:38;11.43;;;3.70;;
75044;SDS011;63614;56.026;35.960;2023-03-24T17:45:07;9.23;;;3.97;;
75044;SDS011;63614;56.026;35.960;2023-03-24T17:47:36;8.13;;;3.17;;
75044;SDS011;63614;56.026;35.960;2023-03-24T17:50:03;7.30;;;3.80;;
75044;SDS011;63614;56.026;35.960;2023-03-24T17:52:52;10.02;;;3.13;;
75044;SDS011;63614;56.026;35.960;2023-03-24T17:55:21;8.88;;;4.20;;
75044;SDS011;63614;56.026;35.960;2023-03-24T17:57:46;9.82;;;4.38;;
75044;SDS011;63614;56.026;35.960;2023-03-24T18:00:13;6.10;;;2.97;;
75044;SDS011;63614;56.026;35.960;2023-03-24T18:02:41;7.28;;;3.15;;
75044;SDS011;63614;56.026;35.960;2023-03-24T18:05:09;11.82;;;2.92;;